Relevés horaires Cimetta (Suisse)


Relevés horaires à Cimetta - Mercredi 05 Sept. 2018
Heure UTC1 Température [°C] Vent [km/h] Hum. [%] Pres.4 [hPa] Visi. [Km] Nébu. [octa] Préc.5 [mm] Cond.
2m. Res. Ros. Dir.2 Vit. Moy. Raf.3
23:00 11.7 11.7 10.9 E 3.7 -- -- 95 850 -- -- -- --
22:00 11.8 11.6 10.7 OSO 5.6 -- -- 93 850 -- -- -- --
21:00 12.5 12.4 9.8 SO 5.6 -- 9.3 84 850(0.3/3h) -- -- -- --
20:00 12.4 12.3 10.6 SO 5.6 -- -- 89 850 -- -- -- --
19:00 12.5 12.4 10.5 SO 5.6 -- -- 88 836 -- -- -- --
18:00 12.6 12.6 10.3 SO 3.7 -- 22.2 86 850(-0.4/3h) -- -- 0/12h
--
17:00 13.1 12.4 9.5 SSO 9.3 -- -- 79 850 -- -- -- --
16:00 13.1 12.4 10.2 SO 9.3 -- -- 83 850 -- -- -- --
15:00 15.2 15.2 10.5 SSO 5.6 -- 22.2 74 850(-0.6/3h) -- -- -- --
14:00 15.6 15.4 9.9 SSO 9.3 -- -- 69 850 -- -- -- --
13:00 14.9 14.6 10.8 SSO 9.3 -- -- 76 850 -- -- -- --
12:00 15.6 15.4 10.6 SSO 9.3 -- 20.4 72 850(0.0/3h) -- -- 0/6h
--
11:00 14.9 14.9 8.5 SSO 5.6 -- -- 66 850 -- -- -- --
10:00 15.6 15.4 9.7 S 9.3 -- -- 68 850 -- -- -- --
09:00 13.9 13.9 8.5 SSO 5.6 -- 11.1 70 850(0.4/3h) -- -- -- --
08:00 15.0 15.0 10.6 NE 5.6 -- -- 75 850 -- -- -- --
07:00 13.1 13.1 9.3 SE 3.7 -- -- 78 850 -- -- -- --
06:00 13.2 13.2 9.3 ENE 5.6 -- 14.8 77 850(0.5/3h) -- -- 0/12h
0/24h
--
05:00 11.7 11.5 7.2 E 5.6 -- -- 74 850 -- -- -- --
04:00 11.6 11.4 7.3 NE 5.6 -- -- 75 850 -- -- -- --
03:00 11.4 11.4 8.2 NE 3.7 -- 14.8 81 850(0.0/3h) -- -- -- --
02:00 12.0 12.0 7.1 NE 1.9 -- -- 72 850 -- -- -- --
01:00 12.3 11.8 5.8 O 7.4 -- -- 64 850 -- -- -- --
00:00 12.1 11.2 7.6 OSO 9.3 -- 11.1 74 850(0.2/3h) -- -- 0/6h
--

1 Coordinated Universal Time. Actuellement il est 20:00 locale et 18:00 UTC.

2 Le vent souffle depuis la direction indiquée vers la direction oposée.

3 Les rafales max. sont disponible 40 min après l'heure du relevé.

4 Pour les stations d'altitude (plus de 600m) le géopotentiel du niveau le plus proche de la pression obligatoire est indiqué.

5 Les stations disposant d'un diffuseur peuvent indiquer "trace". Cela signifie que des précipitations ont touchés le sol mais que la quantité est inférieure à 0.1 mm.

Récapitulatif de la journée
Température [°C] Vent [km/h] Ensoleillement4 [h] Precipitations totale5 [mm] Pression [Hpa]
Min1 Max.2 Moy.3 Max. Min Max.
11.3 16.7 0 22.2 10 h 42 min 0 836.0 850.0

1 Température minimale relevée entre 18:00 UTC la veille et 18:00 UTC le jour donné.

2 Température maximale relevée entre 06:00 UTC le jour donné et 06:00 UTC le lendemain.

3 Vent moyen de la journée basé sur les relevés horaires.

4 Ensoleillement en heures relevé entre 06:00 UTC la veille et 06:00 UTC le jour donné.

5 Précipitations totales tombées entre 06:00 UTC la jour donné et 06:00 UTC le lendemain.

Graphiques horaires